Time;durP1;ratioP1;P1;durP2;ratioP2;P2;SDS_P1;SDS_P2;PMS_P1;PMS_P2;Temp;Humidity;BMP_temperature;BMP_pressure;BME280_temperature;BME280_humidity;BME280_pressure;Samples;Min_cycle;Max_cycle;Signal;HPM_P1;HPM_P2
2022/02/26 00:02:13;;;;;;;26.23;6.72;;;;;;;;;;5068991;28;20646;-51
2022/02/26 00:04:39;;;;;;;24.30;6.53;;;;;;;;;;5052453;28;20021;-51
2022/02/26 00:07:05;;;;;;;26.42;8.50;;;;;;;;;;5052583;28;20473;-50
2022/02/26 00:09:31;;;;;;;26.17;6.65;;;;;;;;;;5051143;28;20039;-48
2022/02/26 00:11:57;;;;;;;21.88;6.10;;;;;;;;;;5052498;28;20484;-48
2022/02/26 00:14:23;;;;;;;38.55;7.65;;;;;;;;;;5052389;28;20108;-51
2022/02/26 00:16:49;;;;;;;26.85;7.40;;;;;;;;;;5052383;28;20036;-52
2022/02/26 00:19:15;;;;;;;19.52;6.53;;;;;;;;;;5052317;28;20044;-47
2022/02/26 00:21:41;;;;;;;21.20;7.18;;;;;;;;;;5052377;28;20079;-48
2022/02/26 00:24:07;;;;;;;29.42;7.93;;;;;;;;;;5052548;28;20082;-51
2022/02/26 00:26:33;;;;;;;27.25;6.60;;;;;;;;;;5052311;28;20071;-49
2022/02/26 00:28:59;;;;;;;26.23;6.20;;;;;;;;;;5052219;28;20025;-50
2022/02/26 00:31:25;;;;;;;23.90;6.45;;;;;;;;;;5052152;28;20025;-51
2022/02/26 00:33:51;;;;;;;24.83;5.55;;;;;;;;;;5050604;28;20079;-52
2022/02/26 00:36:18;;;;;;;20.08;5.38;;;;;;;;;;5051931;28;20091;-51
2022/02/26 00:38:44;;;;;;;23.80;6.97;;;;;;;;;;5053925;28;20024;-47
2022/02/26 00:41:10;;;;;;;24.45;6.43;;;;;;;;;;5061102;28;20064;-46
2022/02/26 00:43:36;;;;;;;29.77;6.57;;;;;;;;;;5066455;28;20033;-52
2022/02/26 00:46:03;;;;;;;26.52;6.90;;;;;;;;;;5071885;28;20032;-53
2022/02/26 00:51:13;;;;;;;32.13;7.40;;;;;;;;;;5073134;28;20039;-52
2022/02/26 00:53:39;;;;;;;21.83;5.20;;;;;;;;;;5075747;28;20033;-56
2022/02/26 00:56:05;;;;;;;24.60;6.68;;;;;;;;;;5080628;28;20020;-51
2022/02/26 00:58:31;;;;;;;19.02;5.72;;;;;;;;;;5078363;28;20130;-50
2022/02/26 01:00:57;;;;;;;24.70;6.28;;;;;;;;;;5071037;28;20090;-51
2022/02/26 01:03:23;;;;;;;25.73;6.32;;;;;;;;;;5084945;23;20044;-57
2022/02/26 01:05:49;;;;;;;25.88;6.53;;;;;;;;;;5092485;28;20024;-54
2022/02/26 01:08:15;;;;;;;26.33;7.40;;;;;;;;;;5076063;28;20031;-56
2022/02/26 01:10:41;;;;;;;23.52;6.30;;;;;;;;;;5094436;28;20024;-56
2022/02/26 01:13:08;;;;;;;25.27;5.97;;;;;;;;;;5094319;28;20499;-57
2022/02/26 01:15:34;;;;;;;28.05;6.55;;;;;;;;;;5094223;28;20025;-57
2022/02/26 01:18:00;;;;;;;20.40;6.72;;;;;;;;;;5076133;28;20024;-53
2022/02/26 01:20:26;;;;;;;20.95;5.03;;;;;;;;;;5076247;28;20032;-52
2022/02/26 01:22:52;;;;;;;27.27;6.45;;;;;;;;;;5093961;28;20028;-54
2022/02/26 01:25:18;;;;;;;23.67;6.97;;;;;;;;;;5094093;28;20032;-57
2022/02/26 01:27:44;;;;;;;28.02;6.10;;;;;;;;;;5093867;28;20107;-53
2022/02/26 01:30:10;;;;;;;25.60;6.55;;;;;;;;;;5093709;28;20024;-56
2022/02/26 01:32:36;;;;;;;26.55;7.63;;;;;;;;;;5093784;28;20024;-57
2022/02/26 01:35:03;;;;;;;32.00;5.90;;;;;;;;;;5075755;28;20030;-57
2022/02/26 01:37:30;;;;;;;22.75;5.72;;;;;;;;;;5094279;28;20079;-57
2022/02/26 01:39:56;;;;;;;28.10;6.45;;;;;;;;;;5094032;28;20063;-53
2022/02/26 01:42:22;;;;;;;29.85;6.50;;;;;;;;;;5093892;28;20090;-56
2022/02/26 01:44:49;;;;;;;24.55;6.72;;;;;;;;;;5093566;28;20059;-56
2022/02/26 01:47:15;;;;;;;30.88;6.95;;;;;;;;;;5093282;28;20085;-55
2022/02/26 01:49:41;;;;;;;24.55;6.18;;;;;;;;;;5093260;28;20028;-57
2022/02/26 01:52:08;;;;;;;21.65;5.65;;;;;;;;;;5075401;28;20101;-53
2022/02/26 01:54:34;;;;;;;28.90;7.78;;;;;;;;;;5093373;28;20465;-55
2022/02/26 01:57:00;;;;;;;21.60;7.10;;;;;;;;;;5093477;28;20047;-55
2022/02/26 01:59:26;;;;;;;22.48;6.15;;;;;;;;;;5074916;28;20062;-55
2022/02/26 02:01:52;;;;;;;26.00;6.50;;;;;;;;;;5075180;28;20024;-56
2022/02/26 02:04:19;;;;;;;24.67;5.82;;;;;;;;;;5093068;28;20102;-53
2022/02/26 02:06:45;;;;;;;27.88;5.93;;;;;;;;;;5093179;28;20027;-55
2022/02/26 02:09:11;;;;;;;22.40;6.53;;;;;;;;;;5074979;28;20024;-56
2022/02/26 02:11:37;;;;;;;24.77;6.35;;;;;;;;;;5075136;28;20028;-53
2022/02/26 02:14:04;;;;;;;30.33;7.50;;;;;;;;;;5092764;28;20032;-56
2022/02/26 02:16:30;;;;;;;22.73;5.18;;;;;;;;;;5074609;28;20024;-55
2022/02/26 02:18:56;;;;;;;20.05;5.07;;;;;;;;;;5092996;28;20103;-57
2022/02/26 02:21:23;;;;;;;23.33;5.63;;;;;;;;;;5074987;28;20020;-54
2022/02/26 02:23:49;;;;;;;21.38;5.32;;;;;;;;;;5074896;28;20026;-53
2022/02/26 02:26:17;;;;;;;25.50;6.70;;;;;;;;;;5092639;28;20032;-52
2022/02/26 02:28:43;;;;;;;27.48;7.03;;;;;;;;;;5092796;28;20024;-55
2022/02/26 02:31:09;;;;;;;23.58;5.88;;;;;;;;;;5092824;28;20031;-57
2022/02/26 02:33:42;;;;;;;29.23;6.85;;;;;;;;;;5092900;28;20031;-53
2022/02/26 02:36:08;;;;;;;25.25;6.38;;;;;;;;;;5092632;28;20028;-51
2022/02/26 02:38:34;;;;;;;21.65;6.03;;;;;;;;;;5074524;28;20050;-57
2022/02/26 02:41:00;;;;;;;28.52;6.57;;;;;;;;;;5092461;28;20107;-58
2022/02/26 02:43:26;;;;;;;24.90;7.80;;;;;;;;;;5092552;28;20467;-55
2022/02/26 02:45:52;;;;;;;24.90;6.38;;;;;;;;;;5092399;28;20016;-54
2022/02/26 02:48:18;;;;;;;23.95;6.97;;;;;;;;;;5092465;28;20115;-52
2022/02/26 02:50:44;;;;;;;40.03;8.32;;;;;;;;;;5074501;28;20460;-53
2022/02/26 02:53:10;;;;;;;24.27;5.43;;;;;;;;;;5092240;28;20109;-51
2022/02/26 02:55:36;;;;;;;25.48;6.85;;;;;;;;;;5092267;28;20035;-52
2022/02/26 02:58:02;;;;;;;22.60;6.20;;;;;;;;;;5074238;28;20077;-56
2022/02/26 03:00:29;;;;;;;23.00;6.82;;;;;;;;;;5092252;28;20052;-52
2022/02/26 03:02:55;;;;;;;27.23;5.95;;;;;;;;;;5092229;28;20039;-51
2022/02/26 03:05:21;;;;;;;26.90;7.03;;;;;;;;;;5074240;28;20575;-57
2022/02/26 03:07:48;;;;;;;25.40;7.50;;;;;;;;;;5092448;28;20034;-58
2022/02/26 03:10:14;;;;;;;23.48;8.27;;;;;;;;;;5092388;28;20054;-58
2022/02/26 03:12:40;;;;;;;22.90;6.60;;;;;;;;;;5073912;28;20051;-52
2022/02/26 03:15:07;;;;;;;24.73;6.50;;;;;;;;;;5092008;28;20043;-56
2022/02/26 03:17:34;;;;;;;25.73;6.50;;;;;;;;;;5092286;28;20024;-54
2022/02/26 03:20:00;;;;;;;23.83;6.75;;;;;;;;;;5073904;28;20514;-54
2022/02/26 03:22:26;;;;;;;28.50;6.57;;;;;;;;;;5093460;28;20028;-52
2022/02/26 03:24:52;;;;;;;26.30;6.03;;;;;;;;;;5096436;28;20051;-57
2022/02/26 03:27:18;;;;;;;26.77;6.82;;;;;;;;;;5077924;28;20020;-51
2022/02/26 03:29:44;;;;;;;21.05;6.60;;;;;;;;;;5096315;28;20023;-55
2022/02/26 03:32:10;;;;;;;20.33;6.47;;;;;;;;;;5096059;28;20090;-54
2022/02/26 03:34:37;;;;;;;29.88;7.90;;;;;;;;;;5095882;28;20039;-54
2022/02/26 03:37:03;;;;;;;21.92;6.68;;;;;;;;;;5096076;28;20110;-56
2022/02/26 03:39:31;;;;;;;22.40;6.72;;;;;;;;;;5096147;28;20050;-55
2022/02/26 03:42:01;;;;;;;24.23;6.75;;;;;;;;;;5096162;28;20103;-54
2022/02/26 03:44:27;;;;;;;24.33;6.63;;;;;;;;;;5095620;28;20119;-56
2022/02/26 03:46:53;;;;;;;27.17;6.45;;;;;;;;;;5095959;28;20016;-56
2022/02/26 03:49:19;;;;;;;23.13;6.38;;;;;;;;;;5077561;28;20027;-58
2022/02/26 03:51:45;;;;;;;24.25;5.53;;;;;;;;;;5095978;28;20032;-55
2022/02/26 03:54:11;;;;;;;22.60;6.50;;;;;;;;;;5095703;28;20039;-58
2022/02/26 03:56:37;;;;;;;26.23;5.45;;;;;;;;;;5095806;28;20032;-58
2022/02/26 03:59:03;;;;;;;23.67;7.03;;;;;;;;;;5095618;28;20016;-56
2022/02/26 04:01:29;;;;;;;28.52;6.60;;;;;;;;;;5095630;28;20077;-55
2022/02/26 04:03:55;;;;;;;28.50;6.35;;;;;;;;;;5095830;28;20388;-54
2022/02/26 04:06:21;;;;;;;24.08;6.05;;;;;;;;;;5077728;28;20020;-53
2022/02/26 04:08:47;;;;;;;28.52;6.85;;;;;;;;;;5077204;28;20016;-54
2022/02/26 04:11:13;;;;;;;25.42;6.50;;;;;;;;;;5077389;28;20476;-52
2022/02/26 04:13:39;;;;;;;25.75;8.90;;;;;;;;;;5095295;28;20028;-57
2022/02/26 04:16:06;;;;;;;24.77;6.72;;;;;;;;;;5095205;28;20031;-54
2022/02/26 04:18:32;;;;;;;22.63;5.70;;;;;;;;;;5095232;28;20106;-55
2022/02/26 04:20:58;;;;;;;23.85;7.10;;;;;;;;;;5094984;28;20119;-55
2022/02/26 04:23:24;;;;;;;23.17;6.13;;;;;;;;;;5095068;28;20036;-53
2022/02/26 04:25:51;;;;;;;25.42;7.07;;;;;;;;;;5095286;28;20016;-58
2022/02/26 04:28:17;;;;;;;29.27;7.07;;;;;;;;;;5094774;28;20460;-57
2022/02/26 04:30:43;;;;;;;27.45;6.75;;;;;;;;;;5094997;28;20081;-58
2022/02/26 04:33:09;;;;;;;31.60;7.72;;;;;;;;;;5076187;28;20031;-56
2022/02/26 04:35:35;;;;;;;23.25;7.18;;;;;;;;;;5094246;28;20024;-56
2022/02/26 04:38:01;;;;;;;25.60;7.32;;;;;;;;;;5094772;28;20085;-53
2022/02/26 04:40:27;;;;;;;27.52;8.32;;;;;;;;;;5094724;28;20106;-57
2022/02/26 04:42:54;;;;;;;22.65;7.82;;;;;;;;;;5094733;28;20077;-56
2022/02/26 04:45:19;;;;;;;27.77;7.32;;;;;;;;;;5094579;28;20020;-55
2022/02/26 04:47:46;;;;;;;23.25;7.28;;;;;;;;;;5076708;28;20028;-56
2022/02/26 04:50:13;;;;;;;23.92;6.90;;;;;;;;;;5094744;28;20109;-56
2022/02/26 04:52:39;;;;;;;28.98;7.68;;;;;;;;;;5094789;28;20036;-55
2022/02/26 04:55:07;;;;;;;25.90;7.20;;;;;;;;;;5094489;28;20246;-53
2022/02/26 04:57:33;;;;;;;29.17;8.75;;;;;;;;;;5076335;28;20028;-54
2022/02/26 05:00:00;;;;;;;28.90;7.05;;;;;;;;;;5094478;28;20067;-55
2022/02/26 05:02:26;;;;;;;31.27;7.47;;;;;;;;;;5094297;28;20040;-57
2022/02/26 05:04:52;;;;;;;30.90;9.15;;;;;;;;;;5094529;28;20077;-57
2022/02/26 05:07:19;;;;;;;31.65;7.45;;;;;;;;;;5094532;28;20032;-55
2022/02/26 05:09:45;;;;;;;22.80;7.22;;;;;;;;;;5094937;28;20020;-58
2022/02/26 05:12:11;;;;;;;23.80;7.38;;;;;;;;;;5076710;28;20449;-51
2022/02/26 05:14:37;;;;;;;28.70;7.80;;;;;;;;;;5094591;28;20395;-53
2022/02/26 05:17:03;;;;;;;30.88;7.93;;;;;;;;;;5076017;28;20032;-53
2022/02/26 05:19:29;;;;;;;23.02;7.82;;;;;;;;;;5094819;28;20024;-58
2022/02/26 05:21:55;;;;;;;25.77;7.53;;;;;;;;;;5095690;28;20024;-57
2022/02/26 05:24:21;;;;;;;26.13;8.05;;;;;;;;;;5095404;28;20020;-58
2022/02/26 05:26:47;;;;;;;23.05;7.05;;;;;;;;;;5094276;28;20470;-51
2022/02/26 05:29:13;;;;;;;27.83;10.50;;;;;;;;;;5076063;28;20481;-52
2022/02/26 05:31:39;;;;;;;26.88;8.00;;;;;;;;;;5075906;28;20024;-53
2022/02/26 05:34:05;;;;;;;25.33;7.18;;;;;;;;;;5093802;28;20024;-51
2022/02/26 05:36:31;;;;;;;30.02;8.05;;;;;;;;;;5075634;28;20424;-54
2022/02/26 05:38:57;;;;;;;28.38;9.65;;;;;;;;;;5093500;28;20082;-51
2022/02/26 05:41:23;;;;;;;30.27;9.15;;;;;;;;;;5093844;28;20024;-53
2022/02/26 05:43:49;;;;;;;42.22;8.70;;;;;;;;;;5093708;28;20020;-57
2022/02/26 05:46:15;;;;;;;25.60;9.35;;;;;;;;;;5093287;28;20024;-54
2022/02/26 05:48:41;;;;;;;30.45;9.02;;;;;;;;;;5093534;28;20369;-55
2022/02/26 05:51:07;;;;;;;28.33;8.95;;;;;;;;;;5075397;28;20497;-56
2022/02/26 05:53:33;;;;;;;30.83;8.88;;;;;;;;;;5093649;28;20099;-55
2022/02/26 05:56:00;;;;;;;27.85;8.30;;;;;;;;;;5093492;28;20032;-57
2022/02/26 05:58:26;;;;;;;31.60;9.18;;;;;;;;;;5093405;28;20510;-54
2022/02/26 06:00:52;;;;;;;32.17;9.32;;;;;;;;;;5093099;28;20053;-57
2022/02/26 06:03:18;;;;;;;31.55;10.27;;;;;;;;;;5093233;28;20114;-55
2022/02/26 06:05:44;;;;;;;23.70;9.32;;;;;;;;;;5093221;28;20105;-54
2022/02/26 06:08:10;;;;;;;34.10;10.60;;;10.40;99.90;;;;;;5093208;28;20012;-55
2022/02/26 06:10:36;;;;;;;33.95;10.70;;;0.60;99.90;;;;;;5093016;28;20030;-54
2022/02/26 06:13:02;;;;;;;28.13;9.10;;;0.40;99.90;;;;;;5093084;28;20036;-58
2022/02/26 06:15:27;;;;;;;33.20;11.70;;;0.40;99.90;;;;;;5092965;28;20024;-56
2022/02/26 06:17:53;;;;;;;34.13;10.35;;;0.40;99.90;;;;;;5092879;28;20026;-56
2022/02/26 06:20:19;;;;;;;31.30;9.40;;;0.30;99.90;;;;;;5074319;28;20085;-56
2022/02/26 06:22:44;;;;;;;26.98;8.98;;;0.30;99.90;;;;;;5092651;28;20028;-53
2022/02/26 06:25:10;;;;;;;32.22;11.02;;;0.40;99.90;;;;;;5092837;28;20069;-53
2022/02/26 06:27:41;;;;;;;30.48;9.48;;;0.40;99.90;;;;;;5092574;28;20093;-54
2022/02/26 06:30:08;;;;;;;32.22;11.13;;;0.30;99.90;;;;;;5092956;28;20060;-51
2022/02/26 06:32:35;;;;;;;32.83;10.53;;;0.30;99.90;;;;;;5093142;28;20035;-57
2022/02/26 06:35:00;;;;;;;30.20;10.00;;;0.30;99.90;;;;;;5093448;28;20024;-55
2022/02/26 06:37:26;;;;;;;30.50;8.65;;;0.30;99.90;;;;;;5093336;28;20436;-58
2022/02/26 06:39:52;;;;;;;30.52;9.40;;;0.30;99.90;;;;;;5092748;28;20035;-56
2022/02/26 06:42:18;;;;;;;28.95;9.98;;;0.30;99.90;;;;;;5092817;28;20077;-54
2022/02/26 06:44:43;;;;;;;34.78;10.75;;;0.30;99.90;;;;;;5093207;28;20146;-52
2022/02/26 06:47:09;;;;;;;37.53;11.95;;;0.40;99.90;;;;;;5093355;28;20471;-53
2022/02/26 06:49:34;;;;;;;33.65;11.52;;;0.30;99.90;;;;;;5074258;28;20027;-55
2022/02/26 06:52:00;;;;;;;27.35;9.82;;;0.40;99.90;;;;;;5092623;28;20031;-56
2022/02/26 06:54:26;;;;;;;32.08;11.77;;;0.40;99.90;;;;;;5074102;28;20039;-51
2022/02/26 06:56:52;;;;;;;28.17;9.80;;;0.40;99.90;;;;;;5091899;28;20074;-53
2022/02/26 06:59:19;;;;;;;31.73;10.82;;;0.50;99.90;;;;;;5092017;28;20534;-56
2022/02/26 07:01:45;;;;;;;30.95;11.95;;;0.50;99.90;;;;;;5092091;28;20472;-55
2022/02/26 07:04:12;;;;;;;25.80;9.57;;;0.50;99.90;;;;;;5104949;23;20048;-49
2022/02/26 07:06:42;;;;;;;28.42;11.30;;;0.50;99.90;;;;;;5074998;28;20484;-52
2022/02/26 07:09:09;;;;;;;27.83;10.20;;;0.60;99.90;;;;;;5092724;28;20024;-49
2022/02/26 07:11:36;;;;;;;28.30;9.77;;;0.50;99.90;;;;;;5093341;28;20104;-52
2022/02/26 07:14:01;;;;;;;32.28;9.63;;;0.50;99.90;;;;;;5092438;28;20069;-54
2022/02/26 07:16:27;;;;;;;31.42;9.77;;;;;;;;;;5074296;28;20020;-46
2022/02/26 07:18:53;;;;;;;31.20;10.25;;;;;;;;;;5074568;28;20031;-51
2022/02/26 07:21:19;;;;;;;30.13;10.25;;;;;;;;;;5083978;28;20036;-49
2022/02/26 07:23:45;;;;;;;32.08;9.95;;;;;;;;;;5092065;28;20024;-49
2022/02/26 07:26:11;;;;;;;33.53;9.90;;;;;;;;;;5073989;28;20468;-53
2022/02/26 07:28:37;;;;;;;37.13;11.30;;;;;;;;;;5092140;28;20025;-51
2022/02/26 07:31:03;;;;;;;28.83;9.27;;;;;;;;;;5074161;28;20028;-51
2022/02/26 07:33:29;;;;;;;30.35;10.38;;;;;;;;;;5092043;28;20024;-51
2022/02/26 07:35:55;;;;;;;26.80;9.82;;;;;;;;;;5090860;28;20371;-53
2022/02/26 07:38:21;;;;;;;27.55;10.10;;;;;;;;;;5073732;28;20115;-57
2022/02/26 07:40:47;;;;;;;32.65;10.45;;;;;;;;;;5091612;28;20031;-51
2022/02/26 07:43:13;;;;;;;34.80;10.95;;;;;;;;;;5092495;28;20046;-56
2022/02/26 07:45:39;;;;;;;32.92;9.60;;;;;;;;;;5091921;28;20077;-52
2022/02/26 07:48:06;;;;;;;34.33;11.20;;;;;;;;;;5092482;28;20464;-52
2022/02/26 07:50:32;;;;;;;24.45;10.27;;;;;;;;;;5073236;28;20272;-52
2022/02/26 07:52:58;;;;;;;35.28;11.57;;;;;;;;;;5092331;28;20051;-51
2022/02/26 07:55:24;;;;;;;24.50;9.90;;;;;;;;;;5091915;28;20024;-50
2022/02/26 07:57:50;;;;;;;31.42;12.05;;;;;;;;;;5092193;28;20032;-54
2022/02/26 08:00:16;;;;;;;28.60;9.85;;;;;;;;;;5073229;28;20027;-55
2022/02/26 08:02:44;;;;;;;30.30;11.63;;;;;;;;;;5091855;28;20032;-54
2022/02/26 08:05:10;;;;;;;29.92;10.75;;;;;;;;;;5091172;28;20020;-52
2022/02/26 08:07:35;;;;;;;43.55;11.85;;;;;;;;;;5092172;28;20030;-51
2022/02/26 08:10:02;;;;;;;35.25;11.60;;;;;;;;;;5077139;28;20020;-49
2022/02/26 08:12:28;;;;;;;31.52;10.73;;;;;;;;;;5095768;28;20028;-52
2022/02/26 08:14:54;;;;;;;29.02;9.38;;;;;;;;;;5095417;28;20376;-52
2022/02/26 08:17:20;;;;;;;31.13;10.50;;;0.60;99.90;;;;;;5095328;28;20065;-55
2022/02/26 08:19:46;;;;;;;35.13;11.45;;;2.30;99.90;;;;;;5094838;28;20032;-50
2022/02/26 08:22:11;;;;;;;38.17;11.02;;;2.30;99.90;;;;;;5095280;28;20024;-51
2022/02/26 08:24:37;;;;;;;35.85;11.00;;;2.40;99.90;;;;;;5094507;28;20077;-52
2022/02/26 08:27:04;;;;;;;28.42;10.15;;;2.50;99.90;;;;;;5095075;28;20032;-51
2022/02/26 08:29:29;;;;;;;30.92;10.15;;;2.60;99.90;;;;;;5094328;28;20499;-50
2022/02/26 08:31:56;;;;;;;41.67;10.80;;;;;;;;;;5095067;28;20036;-52
2022/02/26 08:34:22;;;;;;;31.17;10.55;;;;;;;;;;5094369;28;20028;-49
2022/02/26 08:36:49;;;;;;;28.35;8.75;;;;;;;;;;5094301;28;20035;-51
2022/02/26 08:39:16;;;;;;;29.40;9.73;;;;;;;;;;5076148;28;20028;-53
2022/02/26 08:41:42;;;;;;;27.00;10.40;;;;;;;;;;5095018;28;20024;-52
2022/02/26 08:44:08;;;;;;;27.13;7.85;;;;;;;;;;5094340;28;20024;-51
2022/02/26 08:46:34;;;;;;;28.90;8.70;;;;;;;;;;5094605;28;20024;-49
2022/02/26 08:49:00;;;;;;;29.70;8.40;;;;;;;;;;5075839;28;20144;-53
2022/02/26 08:51:26;;;;;;;23.80;7.97;;;2.70;99.90;;;;;;5094235;28;20119;-51
2022/02/26 08:53:53;;;;;;;24.80;8.48;;;3.30;99.90;;;;;;5094612;28;20024;-54
2022/02/26 08:56:21;;;;;;;26.05;8.77;;;;;;;;;;5076058;28;20028;-50
2022/02/26 08:58:47;;;;;;;27.70;9.25;;;;;;;;;;5094151;28;20024;-48
2022/02/26 09:01:13;;;;;;;24.48;7.75;;;;;;;;;;5094292;28;20027;-48
2022/02/26 09:03:39;;;;;;;26.65;7.70;;;;;;;;;;5093790;28;20032;-52
2022/02/26 09:06:05;;;;;;;23.63;7.22;;;;;;;;;;5093346;28;20024;-52
2022/02/26 09:08:32;;;;;;;31.70;7.88;;;;;;;;;;5076009;28;20547;-53
2022/02/26 09:10:58;;;;;;;25.63;7.05;;;;;;;;;;5093916;28;20035;-48
2022/02/26 09:13:24;;;;;;;23.42;6.95;;;;;;;;;;5075586;28;20020;-52
2022/02/26 09:15:50;;;;;;;28.73;6.72;;;;;;;;;;5093696;28;20547;-49
2022/02/26 09:18:16;;;;;;;23.13;5.70;;;;;;;;;;5093981;28;20027;-53
2022/02/26 09:20:42;;;;;;;23.48;5.38;;;;;;;;;;5092400;28;20051;-49
2022/02/26 09:23:08;;;;;;;22.25;6.32;;;;;;;;;;5078791;28;20058;-50
2022/02/26 09:25:34;;;;;;;25.60;5.63;;;;;;;;;;5076783;28;20024;-52
2022/02/26 09:28:00;;;;;;;23.52;5.95;;;;;;;;;;5075699;28;20025;-49
2022/02/26 09:30:26;;;;;;;25.45;6.32;;;;;;;;;;5074192;28;20105;-52
2022/02/26 09:32:53;;;;;;;27.90;6.07;;;;;;;;;;5055929;28;20033;-52
2022/02/26 09:35:19;;;;;;;21.58;5.88;;;;;;;;;;5073191;28;20024;-51
2022/02/26 09:37:45;;;;;;;26.13;6.60;;;;;;;;;;5055571;28;20032;-54
2022/02/26 09:40:11;;;;;;;33.15;6.35;;;;;;;;;;5073066;28;20511;-52
2022/02/26 09:42:40;;;;;;;24.75;6.10;;;;;;;;;;5073189;28;20029;-49
2022/02/26 09:45:06;;;;;;;22.00;6.05;;;;;;;;;;5074620;28;20020;-51
2022/02/26 09:47:32;;;;;;;19.17;6.25;;;;;;;;;;5073917;28;20044;-55
2022/02/26 09:49:58;;;;;;;21.30;6.30;;;;;;;;;;5072805;28;20024;-54
2022/02/26 09:52:25;;;;;;;18.63;6.18;;;;;;;;;;5073647;28;20197;-55
2022/02/26 09:54:51;;;;;;;19.40;5.78;;;;;;;;;;5055513;28;20061;-51
2022/02/26 09:57:18;;;;;;;27.58;6.72;;;;;;;;;;5075130;28;20028;-52
2022/02/26 09:59:44;;;;;;;15.60;5.50;;;;;;;;;;5073219;28;20036;-54
2022/02/26 10:02:11;;;;;;;17.67;5.43;;;;;;;;;;5055205;28;20027;-50
2022/02/26 10:04:38;;;;;;;23.10;5.88;;;;;;;;;;5054195;28;20074;-55
2022/02/26 10:07:12;;;;;;;19.48;6.30;;;;;;;;;;5073209;28;20465;-53
2022/02/26 10:09:44;;;;;;;20.98;5.53;;;3.40;99.90;;;;;;5073018;28;20024;-59
2022/02/26 10:12:22;;;;;;;23.25;6.35;;;5.90;99.90;;;;;;5073383;28;20027;-60
2022/02/26 10:14:48;;;;;;;16.67;5.68;;;5.90;99.90;;;;;;5055495;28;20021;-61
2022/02/26 10:17:27;;;;;;;26.00;8.20;;;6.00;99.90;;;;;;5073976;28;20389;-62
2022/02/26 10:20:13;;;;;;;25.40;7.10;;;6.00;99.90;;;;;;5072376;28;20028;-60
2022/02/26 10:22:42;;;;;;;26.30;8.55;;;6.10;99.90;;;;;;5072400;28;20450;-61
2022/02/26 10:25:18;;;;;;;22.48;5.80;;;6.20;99.90;;;;;;5072729;28;20013;-62
2022/02/26 10:27:47;;;;;;;19.65;5.47;;;6.30;99.90;;;;;;5073130;28;20122;-60
2022/02/26 10:30:15;;;;;;;21.10;5.90;;;;;;;;;;5072872;28;20040;-57
2022/02/26 10:32:42;;;;;;;18.48;6.57;;;;;;;;;;5072116;28;20395;-60
2022/02/26 10:35:08;;;;;;;18.33;5.97;;;;;;;;;;5072384;28;20385;-60
2022/02/26 10:37:34;;;;;;;22.05;5.70;;;;;;;;;;5073290;28;20084;-60
2022/02/26 10:40:01;;;;;;;16.85;6.00;;;;;;;;;;5055026;28;20066;-60
2022/02/26 10:42:28;;;;;;;20.00;6.38;;;;;;;;;;5093110;28;20016;-61
2022/02/26 10:45:09;;;;;;;22.98;6.43;;;;;;;;;;5074276;28;20476;-56
2022/02/26 10:47:36;;;;;;;20.48;6.40;;;;;;;;;;5092926;28;20020;-56
2022/02/26 10:50:13;;;;;;;25.40;6.63;;;;;;;;;;5092051;28;20035;-51
2022/02/26 10:52:39;;;;;;;22.33;6.50;;;;;;;;;;5092410;28;20069;-54
2022/02/26 10:55:07;;;;;;;18.55;6.40;;;;;;;;;;5092862;28;20426;-55
2022/02/26 10:57:33;;;;;;;19.00;6.93;;;;;;;;;;5093513;28;20024;-51
2022/02/26 10:59:59;;;;;;;26.75;6.30;;;;;;;;;;5092066;28;20499;-58
2022/02/26 11:02:26;;;;;;;26.30;6.70;;;;;;;;;;5092710;28;20036;-56
2022/02/26 11:04:55;;;;;;;18.10;5.82;;;;;;;;;;5092023;28;20085;-57
2022/02/26 11:07:22;;;;;;;24.63;7.10;;;;;;;;;;5092554;28;20016;-53
2022/02/26 11:09:52;;;;;;;18.48;5.75;;;;;;;;;;5092318;28;20103;-50
2022/02/26 11:12:18;;;;;;;17.38;5.65;;;;;;;;;;5093089;28;20488;-51
2022/02/26 11:14:48;;;;;;;20.52;6.40;;;;;;;;;;5092286;28;20024;-57
2022/02/26 11:17:15;;;;;;;42.17;18.50;;;;;;;;;;5074636;28;20056;-54
2022/02/26 11:19:44;;;;;;;26.70;8.15;;;;;;;;;;5092204;28;20031;-60
2022/02/26 11:22:11;;;;;;;23.42;7.60;;;;;;;;;;5092797;28;20050;-58
2022/02/26 11:24:38;;;;;;;20.08;6.97;;;;;;;;;;5092344;28;20016;-56
2022/02/26 11:27:04;;;;;;;22.88;7.50;;;6.50;99.90;;;;;;5074552;28;20482;-58
2022/02/26 11:29:30;;;;;;;20.60;7.40;;;13.40;99.70;;;;;;5074037;28;20101;-60
2022/02/26 11:32:10;;;;;;;20.25;7.97;;;13.70;97.90;;;;;;5091977;28;20024;-60
2022/02/26 11:34:37;;;;;;;18.83;7.97;;;14.70;96.00;;;;;;5073594;28;20076;-60
2022/02/26 11:37:11;;;;;;;27.77;9.05;;;14.60;93.10;;;;;;5092529;28;20070;-59
2022/02/26 11:39:41;;;;;;;20.23;8.15;;;14.30;92.70;;;;;;5073767;28;20551;-57
2022/02/26 11:42:19;;;;;;;24.85;8.50;;;14.20;91.80;;;;;;5092625;28;20058;-60
2022/02/26 11:44:47;;;;;;;20.40;7.82;;;14.60;91.10;;;;;;5096369;28;20026;-59
2022/02/26 11:47:20;;;;;;;22.92;8.75;;;15.80;90.70;;;;;;5096079;28;20020;-57
2022/02/26 11:50:14;;;;;;;20.63;8.90;;;15.10;88.10;;;;;;5092696;28;20488;-61
2022/02/26 11:53:01;;;;;;;21.23;8.55;;;14.20;89.70;;;;;;5095017;28;20028;-57
2022/02/26 11:55:44;;;;;;;21.02;8.20;;;13.90;89.60;;;;;;5094667;28;20031;-53
2022/02/26 11:58:17;;;;;;;23.30;9.18;;;13.70;90.10;;;;;;5094885;28;20032;-60
2022/02/26 12:00:57;;;;;;;20.25;8.80;;;13.70;90.20;;;;;;5094300;28;20454;-54
2022/02/26 12:03:41;;;;;;;23.45;8.75;;;13.80;89.50;;;;;;5094506;28;20031;-59
2022/02/26 12:06:10;;;;;;;18.70;8.48;;;14.30;88.50;;;;;;5095581;28;20027;-54
2022/02/26 12:08:57;;;;;;;22.75;8.93;;;14.80;87.40;;;;;;5078002;28;20480;-52
2022/02/26 12:11:36;;;;;;;21.98;8.98;;;14.40;87.20;;;;;;5096088;28;20376;-56
2022/02/26 12:14:07;;;;;;;23.50;8.68;;;13.60;87.70;;;;;;5094880;28;20039;-54
2022/02/26 12:16:36;;;;;;;25.08;9.20;;;12.70;88.50;;;;;;5095794;28;20020;-59
2022/02/26 12:19:06;;;;;;;28.98;9.15;;;11.70;90.60;;;;;;5094270;28;20024;-56
2022/02/26 12:21:35;;;;;;;19.85;8.07;;;;;;;;;;5092309;28;20032;-56
2022/02/26 12:24:04;;;;;;;20.10;8.15;;;;;;;;;;5092511;28;20027;-56
2022/02/26 12:27:00;;;;;;;21.10;8.35;;;;;;;;;;5095434;28;20361;-57
2022/02/26 12:29:29;;;;;;;23.27;8.00;;;;;;;;;;5062382;28;20115;-56
2022/02/26 12:32:10;;;;;;;33.03;9.70;;;11.10;91.30;;;;;;5098096;28;20016;-59
2022/02/26 12:34:38;;;;;;;26.48;10.45;;;12.30;92.20;;;;;;5094955;28;20032;-55
2022/02/26 12:37:16;;;;;;;22.77;8.57;;;14.40;89.90;;;;;;5095757;28;20020;-59
2022/02/26 12:39:53;;;;;;;73.32;59.03;;;16.30;86.00;;;;;;5094895;28;20292;-57
2022/02/26 12:42:24;;;;;;;26.00;10.27;;;18.00;82.80;;;;;;5095078;28;20024;-59
2022/02/26 12:44:55;;;;;;;22.77;10.23;;;18.80;80.70;;;;;;5076192;28;20048;-58
2022/02/26 12:47:22;;;;;;;24.08;10.43;;;19.00;79.90;;;;;;5094546;28;20020;-56
2022/02/26 12:49:48;;;;;;;24.40;9.40;;;19.80;75.80;;;;;;5094942;28;20107;-51
2022/02/26 12:52:15;;;;;;;30.23;10.43;;;18.60;72.50;;;;;;5077080;28;20147;-55
2022/02/26 12:54:42;;;;;;;22.42;9.73;;;18.20;74.60;;;;;;5093241;28;20377;-56
2022/02/26 12:57:09;;;;;;;24.15;9.20;;;18.70;73.60;;;;;;5095140;28;20102;-54
2022/02/26 12:59:36;;;;;;;21.92;9.18;;;18.60;73.40;;;;;;5094474;28;20020;-54
2022/02/26 13:02:03;;;;;;;17.83;8.35;;;19.10;70.70;;;;;;5093883;28;20024;-55
2022/02/26 13:04:41;;;;;;;19.23;9.30;;;18.80;70.10;;;;;;5096907;22;20048;-61
2022/02/26 13:07:09;;;;;;;24.27;9.23;;;19.50;67.80;;;;;;5050636;28;20020;-61
2022/02/26 13:09:50;;;;;;;18.80;8.52;;;19.40;68.60;;;;;;5052154;28;20025;-59
2022/02/26 13:12:18;;;;;;;22.00;9.07;;;18.90;68.20;;;;;;5053979;28;20121;-63
2022/02/26 13:15:13;;;;;;;19.80;9.55;;;18.70;70.10;;;;;;5054475;28;20393;-59
2022/02/26 13:17:43;;;;;;;22.73;9.93;;;19.30;69.10;;;;;;5036379;28;20405;-61
2022/02/26 13:20:22;;;;;;;19.27;8.95;;;19.60;67.20;;;;;;5053446;28;20053;-61
2022/02/26 13:22:51;;;;;;;21.10;9.48;;;19.70;65.20;;;;;;5052738;28;20021;-61
2022/02/26 13:25:18;;;;;;;24.95;9.50;;;18.80;65.70;;;;;;5053349;28;20025;-57
2022/02/26 13:27:49;;;;;;;17.75;8.93;;;17.50;67.00;;;;;;5051897;28;20116;-59
2022/02/26 13:30:15;;;;;;;20.02;10.57;;;16.70;69.20;;;;;;5053182;28;20493;-61
2022/02/26 13:32:46;;;;;;;22.27;9.80;;;16.80;70.80;;;;;;5051745;28;20070;-60
2022/02/26 13:35:13;;;;;;;22.98;9.98;;;15.70;71.50;;;;;;5051934;28;20028;-59
2022/02/26 13:37:39;;;;;;;20.08;9.05;;;14.50;74.20;;;;;;5052452;28;20504;-58
2022/02/26 13:40:07;;;;;;;22.55;8.85;;;14.20;74.70;;;;;;5052129;28;20024;-60
2022/02/26 13:42:35;;;;;;;21.92;9.38;;;14.30;74.90;;;;;;5053490;28;20025;-59
2022/02/26 13:45:06;;;;;;;;;;;13.80;75.60;;;;;;5052223;28;20524;-60
2022/02/26 13:47:32;;;;;;;22.23;9.48;;;13.10;77.10;;;;;;5052768;28;19948;-58
2022/02/26 13:50:00;;;;;;;23.30;8.45;;;12.80;78.10;;;;;;5051554;28;20397;-59
2022/02/26 13:52:27;;;;;;;22.20;8.88;;;12.00;80.10;;;;;;5052943;28;20036;-60
2022/02/26 13:54:56;;;;;;;23.98;8.95;;;12.50;80.20;;;;;;5051386;28;20029;-56
2022/02/26 13:57:28;;;;;;;31.45;10.65;;;14.20;76.00;;;;;;5053414;28;20024;-61
2022/02/26 14:00:22;;;;;;;22.15;8.52;;;15.20;74.00;;;;;;5052114;28;20029;-60